createdAt,value
2023-01-08T00:01:09.185Z,52.23
2023-01-08T00:03:39.036Z,56.45
2023-01-08T00:06:13.617Z,56.30
2023-01-08T00:08:41.730Z,48.33
2023-01-08T00:11:09.627Z,48.90
2023-01-08T00:13:37.986Z,43.15
2023-01-08T00:16:10.367Z,38.35
2023-01-08T00:18:38.028Z,39.03
2023-01-08T00:21:06.334Z,41.60
2023-01-08T00:23:35.457Z,46.88
2023-01-08T00:26:09.511Z,66.33
2023-01-08T00:28:38.531Z,82.33
2023-01-08T00:31:10.595Z,71.33
2023-01-08T00:33:39.962Z,63.73
2023-01-08T00:36:12.469Z,56.98
2023-01-08T00:38:41.119Z,56.58
2023-01-08T00:41:09.193Z,69.40
2023-01-08T00:43:36.971Z,92.65
2023-01-08T00:46:04.895Z,62.38
2023-01-08T00:48:34.431Z,63.13
2023-01-08T00:51:03.055Z,57.88
2023-01-08T00:53:31.001Z,53.85
2023-01-08T00:56:07.910Z,51.00
2023-01-08T00:58:36.295Z,53.52
2023-01-08T01:01:11.769Z,53.38
2023-01-08T01:03:40.175Z,47.05
2023-01-08T01:06:08.557Z,41.88
2023-01-08T01:08:36.355Z,40.20
2023-01-08T01:11:15.392Z,35.55
2023-01-08T01:13:42.926Z,39.18
2023-01-08T01:16:10.355Z,35.63
2023-01-08T01:18:38.476Z,37.17
2023-01-08T01:21:28.339Z,35.98
2023-01-08T01:24:00.085Z,34.78
2023-01-08T01:26:28.291Z,35.43
2023-01-08T01:28:58.213Z,33.70
2023-01-08T01:31:32.160Z,30.20
2023-01-08T01:33:59.992Z,34.40
2023-01-08T01:36:27.954Z,31.27
2023-01-08T01:38:57.604Z,31.02
2023-01-08T01:41:32.257Z,36.28
2023-01-08T01:44:21.339Z,38.30
2023-01-08T01:46:53.083Z,36.10
2023-01-08T01:49:25.274Z,37.40
2023-01-08T01:52:11.251Z,38.73
2023-01-08T01:54:45.702Z,36.45
2023-01-08T01:57:20.404Z,36.70
2023-01-08T01:59:58.817Z,35.35
2023-01-08T02:02:35.287Z,36.65
2023-01-08T02:05:10.680Z,33.18
2023-01-08T02:07:57.121Z,34.78
2023-01-08T02:10:30.777Z,44.93
2023-01-08T02:13:15.935Z,61.90
2023-01-08T02:16:14.830Z,61.08
2023-01-08T02:19:01.654Z,58.45
2023-01-08T02:21:53.287Z,58.40
2023-01-08T02:24:32.294Z,44.23
2023-01-08T02:27:03.322Z,44.33
2023-01-08T02:29:32.810Z,44.77
2023-01-08T02:32:00.463Z,43.23
2023-01-08T02:34:29.976Z,40.03
2023-01-08T02:36:58.331Z,44.85
2023-01-08T02:39:43.806Z,41.13
2023-01-08T02:42:22.416Z,45.58
2023-01-08T02:45:38.357Z,41.92
2023-01-08T02:48:34.151Z,38.85
2023-01-08T02:51:08.914Z,31.07
2023-01-08T02:53:41.031Z,32.25
2023-01-08T02:56:16.772Z,36.00
2023-01-08T02:58:47.227Z,41.25
2023-01-08T03:01:18.321Z,55.28
2023-01-08T03:04:09.648Z,50.60
2023-01-08T03:06:53.592Z,49.08
2023-01-08T03:09:28.201Z,42.95
2023-01-08T03:12:19.843Z,43.25
2023-01-08T03:14:59.888Z,61.63
2023-01-08T03:17:45.951Z,71.65
2023-01-08T03:20:22.458Z,68.07
2023-01-08T03:22:59.112Z,49.98
2023-01-08T03:25:41.185Z,36.20
2023-01-08T03:28:22.926Z,30.92
2023-01-08T03:30:52.563Z,31.35
2023-01-08T03:33:21.735Z,25.15
2023-01-08T03:35:52.501Z,29.67
2023-01-08T03:38:28.252Z,28.42
2023-01-08T03:41:03.968Z,26.68
2023-01-08T03:43:31.606Z,27.82
2023-01-08T03:46:07.859Z,28.23
2023-01-08T03:48:38.062Z,27.35
2023-01-08T03:51:10.939Z,27.25
2023-01-08T03:53:38.748Z,29.85
2023-01-08T03:56:07.159Z,42.67
2023-01-08T03:58:34.919Z,57.08
2023-01-08T04:01:02.340Z,43.65
2023-01-08T04:03:30.055Z,40.20
2023-01-08T04:06:00.108Z,49.18
2023-01-08T04:08:27.888Z,33.00
2023-01-08T04:10:55.386Z,30.45
2023-01-08T04:13:22.928Z,29.32
2023-01-08T04:15:51.469Z,29.72
2023-01-08T04:18:19.127Z,29.63
2023-01-08T04:20:48.836Z,31.35
2023-01-08T04:23:16.510Z,30.50
2023-01-08T04:25:49.868Z,31.95
2023-01-08T04:28:21.097Z,41.30
2023-01-08T04:30:55.516Z,41.48
2023-01-08T04:33:28.898Z,42.33
2023-01-08T04:36:08.082Z,39.45
2023-01-08T04:38:43.338Z,37.03
2023-01-08T04:41:18.429Z,40.73
2023-01-08T04:43:57.571Z,41.88
2023-01-08T04:46:31.508Z,42.05
2023-01-08T04:49:04.363Z,42.93
2023-01-08T04:51:48.148Z,45.67
2023-01-08T04:54:20.578Z,48.63
2023-01-08T04:56:51.428Z,45.63
2023-01-08T04:59:19.367Z,46.40
2023-01-08T05:01:47.338Z,74.50
2023-01-08T05:04:15.049Z,45.92
2023-01-08T05:06:42.968Z,42.45
2023-01-08T05:09:11.396Z,45.25
2023-01-08T05:11:39.240Z,46.77
2023-01-08T05:14:06.679Z,50.10
2023-01-08T05:16:34.268Z,46.92
2023-01-08T05:19:02.070Z,45.67
2023-01-08T05:21:29.898Z,42.30
2023-01-08T05:23:57.544Z,36.45
2023-01-08T05:26:25.541Z,32.25
2023-01-08T05:28:53.301Z,31.97
2023-01-08T05:31:21.117Z,23.12
2023-01-08T05:33:49.047Z,26.12
2023-01-08T05:36:17.213Z,28.38
2023-01-08T05:38:44.764Z,28.12
2023-01-08T05:41:12.485Z,24.87
2023-01-08T05:43:40.187Z,27.42
2023-01-08T05:46:07.995Z,26.12
2023-01-08T05:48:36.871Z,23.42
2023-01-08T05:51:05.811Z,27.77
2023-01-08T05:53:33.713Z,30.15
2023-01-08T05:56:09.130Z,32.83
2023-01-08T05:58:38.086Z,31.00
2023-01-08T06:01:17.211Z,33.55
2023-01-08T06:03:44.851Z,31.82
2023-01-08T06:06:13.031Z,40.03
2023-01-08T06:08:40.618Z,48.15
2023-01-08T06:11:10.611Z,48.75
2023-01-08T06:13:42.234Z,53.75
2023-01-08T06:16:11.049Z,60.52
2023-01-08T06:18:39.408Z,77.78
2023-01-08T06:21:07.135Z,68.65
2023-01-08T06:23:35.056Z,60.45
2023-01-08T06:26:04.530Z,63.73
2023-01-08T06:28:33.035Z,69.60
2023-01-08T06:31:02.516Z,77.47
2023-01-08T06:33:31.184Z,79.92
2023-01-08T06:36:03.881Z,88.70
2023-01-08T06:38:33.833Z,92.30
2023-01-08T06:41:04.486Z,46.98
2023-01-08T06:43:33.781Z,34.83
2023-01-08T06:46:08.120Z,33.15
2023-01-08T06:48:37.003Z,46.73
2023-01-08T06:51:06.308Z,56.70
2023-01-08T06:53:34.239Z,63.02
2023-01-08T06:56:07.034Z,67.00
2023-01-08T06:58:34.984Z,75.78
2023-01-08T07:01:02.894Z,76.60
2023-01-08T07:03:30.609Z,90.32
2023-01-08T07:05:58.713Z,92.22
2023-01-08T07:08:26.488Z,92.02
2023-01-08T07:10:54.147Z,84.52
2023-01-08T07:13:23.456Z,78.50
2023-01-08T07:15:50.951Z,66.67
2023-01-08T07:18:18.855Z,56.73
2023-01-08T07:20:48.749Z,84.15
2023-01-08T07:23:16.312Z,182.50
2023-01-08T07:25:44.063Z,120.33
2023-01-08T07:28:12.596Z,42.13
2023-01-08T07:30:44.259Z,32.80
2023-01-08T07:33:15.221Z,26.40
2023-01-08T07:35:43.138Z,21.93
2023-01-08T07:38:10.811Z,24.55
2023-01-08T07:40:39.487Z,30.97
2023-01-08T07:43:08.458Z,33.02
2023-01-08T07:45:36.424Z,39.55
2023-01-08T07:48:04.651Z,33.53
2023-01-08T07:50:32.582Z,27.05
2023-01-08T07:53:01.592Z,26.52
2023-01-08T07:55:30.538Z,25.23
2023-01-08T07:57:58.228Z,25.57
2023-01-08T08:00:26.084Z,29.50
2023-01-08T08:02:53.981Z,37.17
2023-01-08T08:05:22.033Z,33.15
2023-01-08T08:07:49.534Z,34.73
2023-01-08T08:10:17.250Z,35.60
2023-01-08T08:12:45.535Z,40.40
2023-01-08T08:15:13.691Z,41.28
2023-01-08T08:17:46.917Z,41.40
2023-01-08T08:20:14.812Z,42.60
2023-01-08T08:22:42.964Z,29.18
2023-01-08T08:25:10.923Z,35.85
2023-01-08T08:27:39.762Z,35.75
2023-01-08T08:30:08.629Z,25.97
2023-01-08T08:32:36.949Z,29.80
2023-01-08T08:35:06.006Z,26.70
2023-01-08T08:37:33.448Z,26.05
2023-01-08T08:40:00.913Z,23.35
2023-01-08T08:42:28.620Z,19.12
2023-01-08T08:44:56.221Z,16.07
2023-01-08T08:47:23.876Z,19.77
2023-01-08T08:49:51.913Z,19.95
2023-01-08T08:52:20.349Z,20.52
2023-01-08T08:54:48.116Z,21.35
2023-01-08T08:57:15.696Z,18.20
2023-01-08T08:59:43.279Z,21.40
2023-01-08T09:02:12.331Z,21.73
2023-01-08T09:04:40.106Z,19.95
2023-01-08T09:07:08.692Z,21.48
2023-01-08T09:09:36.458Z,21.60
2023-01-08T09:12:04.162Z,17.55
2023-01-08T09:14:31.596Z,17.07
2023-01-08T09:16:59.159Z,19.52
2023-01-08T09:19:26.799Z,14.98
2023-01-08T09:21:54.118Z,12.60
2023-01-08T09:24:21.749Z,10.40
2023-01-08T09:26:49.362Z,9.63
2023-01-08T09:29:17.061Z,11.18
2023-01-08T09:31:45.240Z,10.75
2023-01-08T09:34:12.946Z,15.48
2023-01-08T09:36:40.713Z,11.30
2023-01-08T09:39:08.993Z,13.08
2023-01-08T09:41:43.957Z,11.90
2023-01-08T09:44:22.523Z,12.25
2023-01-08T09:46:50.810Z,10.95
2023-01-08T09:49:26.008Z,11.63
2023-01-08T09:51:53.964Z,11.97
2023-01-08T09:54:24.896Z,12.43
2023-01-08T09:56:53.935Z,14.20
2023-01-08T09:59:22.268Z,12.00
2023-01-08T10:01:52.541Z,11.60
2023-01-08T10:04:26.432Z,14.23
2023-01-08T10:09:40.492Z,11.68
2023-01-08T10:12:11.639Z,10.38
2023-01-08T10:14:43.266Z,10.93
2023-01-08T10:17:34.192Z,11.05
2023-01-08T10:20:01.948Z,10.50
2023-01-08T10:22:33.506Z,9.88
2023-01-08T10:25:18.373Z,9.18
2023-01-08T10:27:59.572Z,15.70
2023-01-08T10:30:39.500Z,8.83
2023-01-08T10:33:15.127Z,10.18
2023-01-08T10:35:43.499Z,8.10
2023-01-08T10:38:33.025Z,8.45
2023-01-08T10:41:03.526Z,10.05
2023-01-08T10:43:39.102Z,8.55
2023-01-08T10:46:14.128Z,9.70
2023-01-08T10:48:51.790Z,10.20
2023-01-08T10:51:23.264Z,10.53
2023-01-08T10:53:52.830Z,12.10
2023-01-08T10:56:28.806Z,12.20
2023-01-08T10:58:56.998Z,11.10
2023-01-08T11:01:30.900Z,8.53
2023-01-08T11:04:05.451Z,8.08
2023-01-08T11:06:38.450Z,8.35
2023-01-08T11:09:28.614Z,7.45
2023-01-08T11:11:56.551Z,7.17
2023-01-08T11:14:31.539Z,10.00
2023-01-08T11:16:59.176Z,8.23
2023-01-08T11:19:29.984Z,8.90
2023-01-08T11:22:05.938Z,8.80
2023-01-08T11:24:37.561Z,7.58
2023-01-08T11:27:28.804Z,7.42
2023-01-08T11:30:16.475Z,6.67
2023-01-08T11:33:05.295Z,9.50
2023-01-08T11:35:56.409Z,8.58
2023-01-08T11:38:23.994Z,9.20
2023-01-08T11:40:56.980Z,8.50
2023-01-08T11:43:32.802Z,9.00
2023-01-08T11:46:42.456Z,9.48
2023-01-08T11:49:53.747Z,10.10
2023-01-08T11:52:32.848Z,9.93
2023-01-08T11:55:30.267Z,9.80
2023-01-08T11:58:34.817Z,11.20
2023-01-08T12:01:10.877Z,11.12
2023-01-08T12:03:43.015Z,11.15
2023-01-08T12:06:43.646Z,11.20
2023-01-08T12:09:42.092Z,10.63
2023-01-08T12:12:39.691Z,11.08
2023-01-08T12:15:23.241Z,9.30
2023-01-08T12:18:34.045Z,10.15
2023-01-08T12:21:35.705Z,10.18
2023-01-08T12:24:18.021Z,11.33
2023-01-08T12:27:00.065Z,15.93
2023-01-08T12:30:00.933Z,11.63
2023-01-08T12:32:40.307Z,10.90
2023-01-08T12:35:31.608Z,13.53
2023-01-08T12:38:16.832Z,13.25
2023-01-08T12:41:07.164Z,35.28
2023-01-08T12:43:54.581Z,14.23
2023-01-08T12:46:25.879Z,11.00
2023-01-08T12:48:55.473Z,11.10
2023-01-08T12:51:37.692Z,10.72
2023-01-08T12:54:35.315Z,10.40
2023-01-08T12:57:24.847Z,10.75
2023-01-08T13:00:32.832Z,10.88
2023-01-08T13:03:04.457Z,9.00
2023-01-08T13:05:37.476Z,8.65
2023-01-08T13:08:08.508Z,8.60
2023-01-08T13:10:40.000Z,7.37
2023-01-08T13:13:12.685Z,9.40
2023-01-08T13:15:40.160Z,8.25
2023-01-08T13:18:20.303Z,8.55
2023-01-08T13:20:58.610Z,6.97
2023-01-08T13:23:30.065Z,8.00
2023-01-08T13:26:04.390Z,8.80
2023-01-08T13:28:44.022Z,7.65
2023-01-08T13:31:26.675Z,10.48
2023-01-08T13:33:55.417Z,7.58
2023-01-08T13:36:27.995Z,8.15
2023-01-08T13:39:15.975Z,9.00
2023-01-08T13:42:01.905Z,8.55
2023-01-08T13:44:36.002Z,8.05
2023-01-08T13:47:09.151Z,9.10
2023-01-08T13:49:44.283Z,8.03
2023-01-08T13:52:39.120Z,7.87
2023-01-08T13:55:17.596Z,10.20
2023-01-08T13:57:49.467Z,11.40
2023-01-08T14:00:24.697Z,11.15
2023-01-08T14:02:54.557Z,11.08
2023-01-08T14:05:28.385Z,11.25
2023-01-08T14:07:58.807Z,10.68
2023-01-08T14:10:29.644Z,11.08
2023-01-08T14:13:08.947Z,11.55
2023-01-08T14:15:39.074Z,13.25
2023-01-08T14:18:07.035Z,11.85
2023-01-08T14:20:38.608Z,13.80
2023-01-08T14:23:13.231Z,15.63
2023-01-08T14:25:41.801Z,14.80
2023-01-08T14:28:17.968Z,17.62
2023-01-08T14:30:52.267Z,16.85
2023-01-08T14:33:24.506Z,17.20
2023-01-08T14:35:54.539Z,17.87
2023-01-08T14:38:22.196Z,16.35
2023-01-08T14:41:07.468Z,15.10
2023-01-08T14:43:49.581Z,15.53
2023-01-08T14:46:27.724Z,17.73
2023-01-08T14:48:56.932Z,17.30
2023-01-08T14:51:28.978Z,15.08
2023-01-08T14:54:01.396Z,14.87
2023-01-08T14:56:33.415Z,15.32
2023-01-08T14:59:08.861Z,14.60
2023-01-08T15:01:36.732Z,19.92
2023-01-08T15:04:15.978Z,54.48
2023-01-08T15:06:44.059Z,57.98
2023-01-08T15:09:33.201Z,51.05
2023-01-08T15:12:06.284Z,54.00
2023-01-08T15:14:36.008Z,56.58
2023-01-08T15:17:14.401Z,53.92
2023-01-08T15:19:52.993Z,49.05
2023-01-08T15:22:25.734Z,46.55
2023-01-08T15:25:08.137Z,46.70
2023-01-08T15:27:36.841Z,57.10
2023-01-08T15:30:08.654Z,72.85
2023-01-08T15:32:38.492Z,72.58
2023-01-08T15:35:18.129Z,52.80
2023-01-08T15:37:46.317Z,49.80
2023-01-08T15:40:14.220Z,47.35
2023-01-08T15:43:02.331Z,57.35
2023-01-08T15:45:33.520Z,62.20
2023-01-08T15:48:01.337Z,74.10
2023-01-08T15:50:35.258Z,69.42
2023-01-08T15:53:07.289Z,67.30
2023-01-08T15:55:34.807Z,59.10
2023-01-08T15:58:04.203Z,58.38
2023-01-08T16:00:32.827Z,59.18
2023-01-08T16:03:00.541Z,60.17
2023-01-08T16:05:29.590Z,58.63
2023-01-08T16:07:57.148Z,56.98
2023-01-08T16:10:25.337Z,55.52
2023-01-08T16:12:52.931Z,56.70
2023-01-08T16:15:21.574Z,50.88
2023-01-08T16:17:49.060Z,41.25
2023-01-08T16:20:17.787Z,25.02
2023-01-08T16:22:45.277Z,24.75
2023-01-08T16:25:13.150Z,24.52
2023-01-08T16:27:42.607Z,28.20
2023-01-08T16:30:14.929Z,27.05
2023-01-08T16:32:43.020Z,37.40
2023-01-08T16:35:11.209Z,38.33
2023-01-08T16:37:39.470Z,43.98
2023-01-08T16:40:10.121Z,48.50
2023-01-08T16:42:38.267Z,53.45
2023-01-08T16:45:08.032Z,45.95
2023-01-08T16:47:39.543Z,43.52
2023-01-08T16:50:10.057Z,38.90
2023-01-08T16:52:38.535Z,33.45
2023-01-08T16:55:07.532Z,27.85
2023-01-08T16:57:34.957Z,29.35
2023-01-08T17:00:04.660Z,27.77
2023-01-08T17:02:32.169Z,28.45
2023-01-08T17:05:00.109Z,28.77
2023-01-08T17:07:27.851Z,28.07
2023-01-08T17:09:55.484Z,42.17
2023-01-08T17:12:23.040Z,41.90
2023-01-08T17:14:50.969Z,42.33
2023-01-08T17:17:18.479Z,37.00
2023-01-08T17:19:46.387Z,33.78
2023-01-08T17:22:13.948Z,31.23
2023-01-08T17:24:41.600Z,28.85
2023-01-08T17:27:10.911Z,33.40
2023-01-08T17:29:38.617Z,27.32
2023-01-08T17:32:06.312Z,29.45
2023-01-08T17:34:34.146Z,34.00
2023-01-08T17:37:01.721Z,35.58
2023-01-08T17:39:29.386Z,41.00
2023-01-08T17:42:15.725Z,36.25
2023-01-08T17:44:43.368Z,35.35
2023-01-08T17:47:11.729Z,31.68
2023-01-08T17:49:39.322Z,29.82
2023-01-08T17:52:08.934Z,32.65
2023-01-08T17:54:37.027Z,31.10
2023-01-08T17:57:04.764Z,28.92
2023-01-08T17:59:33.291Z,32.33
2023-01-08T18:02:01.291Z,28.75
2023-01-08T18:04:29.137Z,24.82
2023-01-08T18:06:56.598Z,22.35
2023-01-08T18:09:24.432Z,29.75
2023-01-08T18:11:52.079Z,28.52
2023-01-08T18:14:21.483Z,29.37
2023-01-08T18:16:53.490Z,30.82
2023-01-08T18:19:21.131Z,33.05
2023-01-08T18:21:48.990Z,29.12
2023-01-08T18:24:16.717Z,28.30
2023-01-08T18:26:45.976Z,30.55
2023-01-08T18:29:13.489Z,29.98
2023-01-08T18:31:41.570Z,40.60
2023-01-08T18:34:09.355Z,44.40
2023-01-08T18:36:36.869Z,35.98
2023-01-08T18:39:04.838Z,41.28
2023-01-08T18:41:51.213Z,42.45
2023-01-08T18:44:18.881Z,40.15
2023-01-08T18:46:48.005Z,42.43
2023-01-08T18:49:15.962Z,38.73
2023-01-08T18:51:43.579Z,34.75
2023-01-08T18:54:12.431Z,33.42
2023-01-08T18:56:40.155Z,23.85
2023-01-08T18:59:09.203Z,25.50
2023-01-08T19:01:37.469Z,25.23
2023-01-08T19:04:05.575Z,25.50
2023-01-08T19:06:33.597Z,27.02
2023-01-08T19:09:04.065Z,27.80
2023-01-08T19:11:31.833Z,29.12
2023-01-08T19:13:59.619Z,26.62
2023-01-08T19:16:29.169Z,24.65
2023-01-08T19:18:57.016Z,25.72
2023-01-08T19:21:24.587Z,25.50
2023-01-08T19:23:53.994Z,27.22
2023-01-08T19:26:21.746Z,27.50
2023-01-08T19:28:49.519Z,26.93
2023-01-08T19:31:18.074Z,24.87
2023-01-08T19:33:46.196Z,24.75
2023-01-08T19:36:16.083Z,21.42
2023-01-08T19:38:44.381Z,23.27
2023-01-08T19:41:31.785Z,25.15
2023-01-08T19:44:00.001Z,29.25
2023-01-08T19:46:28.182Z,26.20
2023-01-08T19:49:01.543Z,30.52
2023-01-08T19:51:30.787Z,28.75
2023-01-08T19:54:00.441Z,28.00
2023-01-08T19:56:29.458Z,40.45
2023-01-08T19:58:57.624Z,32.25
2023-01-08T20:01:27.793Z,31.45
2023-01-08T20:03:56.422Z,24.95
2023-01-08T20:06:26.466Z,30.55
2023-01-08T20:08:58.411Z,28.15
2023-01-08T20:11:27.610Z,28.42
2023-01-08T20:13:58.269Z,26.65
2023-01-08T20:16:28.869Z,31.65
2023-01-08T20:18:58.908Z,32.05
2023-01-08T20:21:26.498Z,33.92
2023-01-08T20:23:58.747Z,36.55
2023-01-08T20:26:28.106Z,37.35
2023-01-08T20:28:57.409Z,39.42
2023-01-08T20:31:32.405Z,48.08
2023-01-08T20:34:04.757Z,53.95
2023-01-08T20:36:34.352Z,50.95
2023-01-08T20:39:09.632Z,40.65
2023-01-08T20:41:37.518Z,47.98
2023-01-08T20:44:06.558Z,52.13
2023-01-08T20:46:36.472Z,44.38
2023-01-08T20:49:09.085Z,36.83
2023-01-08T20:51:44.081Z,38.40
2023-01-08T20:54:16.709Z,41.70
2023-01-08T20:56:44.653Z,46.30
2023-01-08T20:59:12.298Z,49.55
2023-01-08T21:01:40.502Z,59.93
2023-01-08T21:04:10.111Z,60.70
2023-01-08T21:06:38.331Z,61.02
2023-01-08T21:09:09.288Z,61.77
2023-01-08T21:11:39.788Z,58.65
2023-01-08T21:14:08.432Z,55.75
2023-01-08T21:16:38.739Z,60.25
2023-01-08T21:19:08.532Z,81.57
2023-01-08T21:21:40.342Z,63.98
2023-01-08T21:24:10.791Z,71.55
2023-01-08T21:26:39.269Z,68.30
2023-01-08T21:29:08.534Z,44.67
2023-01-08T21:31:37.759Z,32.55
2023-01-08T21:34:08.096Z,22.77
2023-01-08T21:36:36.539Z,21.70
2023-01-08T21:39:04.456Z,21.73
2023-01-08T21:41:50.892Z,22.42
2023-01-08T21:44:41.098Z,19.98
2023-01-08T21:47:13.340Z,25.82
2023-01-08T21:49:41.480Z,29.55
2023-01-08T21:52:27.982Z,37.63
2023-01-08T21:54:57.580Z,33.35
2023-01-08T21:57:27.315Z,29.92
2023-01-08T21:59:55.770Z,30.52
2023-01-08T22:02:24.462Z,27.00
2023-01-08T22:04:55.359Z,37.33
2023-01-08T22:07:25.201Z,43.58
2023-01-08T22:09:53.186Z,51.90
2023-01-08T22:12:23.661Z,49.60
2023-01-08T22:14:55.585Z,44.13
2023-01-08T22:17:25.594Z,46.55
2023-01-08T22:19:53.549Z,46.63
2023-01-08T22:22:21.377Z,48.55
2023-01-08T22:24:51.831Z,51.77
2023-01-08T22:27:20.627Z,52.13
2023-01-08T22:29:48.382Z,50.28
2023-01-08T22:32:15.988Z,44.83
2023-01-08T22:34:43.566Z,50.45
2023-01-08T22:37:11.009Z,48.17
2023-01-08T22:39:38.755Z,58.05
2023-01-08T22:42:06.320Z,61.77
2023-01-08T22:44:34.129Z,59.58
2023-01-08T22:47:02.144Z,67.55
2023-01-08T22:49:29.779Z,69.32
2023-01-08T22:51:58.401Z,60.03
2023-01-08T22:54:26.054Z,57.40
2023-01-08T22:56:53.455Z,51.40
2023-01-08T22:59:21.339Z,49.30
2023-01-08T23:01:49.188Z,37.25
2023-01-08T23:04:16.692Z,28.55
2023-01-08T23:06:44.221Z,27.80
2023-01-08T23:09:11.830Z,27.62
2023-01-08T23:11:39.862Z,32.00
2023-01-08T23:14:07.499Z,20.72
2023-01-08T23:16:35.587Z,23.12
2023-01-08T23:19:03.184Z,22.80
2023-01-08T23:21:30.839Z,23.77
2023-01-08T23:23:58.579Z,23.40
2023-01-08T23:26:29.550Z,22.58
2023-01-08T23:28:58.589Z,23.83
2023-01-08T23:31:28.868Z,26.85
2023-01-08T23:33:57.564Z,29.52
2023-01-08T23:36:25.834Z,22.67
2023-01-08T23:38:55.214Z,20.12
2023-01-08T23:41:28.302Z,18.65
2023-01-08T23:43:56.644Z,17.40
2023-01-08T23:46:24.431Z,14.78
2023-01-08T23:48:51.981Z,13.58
2023-01-08T23:51:19.912Z,11.83
2023-01-08T23:53:47.620Z,14.33
2023-01-08T23:56:15.306Z,11.05
2023-01-08T23:58:44.769Z,13.10
